sensor_id;sensor_type;location;lat;lon;timestamp;P1;durP1;ratioP1;P2;durP2;ratioP2
66546;SDS011;53400;50.364;14.874;2022-12-18T00:01:36;28.77;;;11.50;;
66546;SDS011;53400;50.364;14.874;2022-12-18T00:04:03;29.73;;;12.35;;
66546;SDS011;53400;50.364;14.874;2022-12-18T00:06:31;31.30;;;12.45;;
66546;SDS011;53400;50.364;14.874;2022-12-18T00:09:01;32.28;;;12.10;;
66546;SDS011;53400;50.364;14.874;2022-12-18T00:11:30;38.53;;;15.88;;
66546;SDS011;53400;50.364;14.874;2022-12-18T00:13:57;37.38;;;15.27;;
66546;SDS011;53400;50.364;14.874;2022-12-18T00:16:24;57.05;;;21.02;;
66546;SDS011;53400;50.364;14.874;2022-12-18T00:18:52;56.53;;;20.95;;
66546;SDS011;53400;50.364;14.874;2022-12-18T00:21:20;49.40;;;19.13;;
66546;SDS011;53400;50.364;14.874;2022-12-18T00:23:47;89.57;;;29.83;;
66546;SDS011;53400;50.364;14.874;2022-12-18T00:26:15;76.70;;;28.35;;
66546;SDS011;53400;50.364;14.874;2022-12-18T00:28:44;65.65;;;27.23;;
66546;SDS011;53400;50.364;14.874;2022-12-18T00:31:12;68.80;;;26.52;;
66546;SDS011;53400;50.364;14.874;2022-12-18T00:33:39;64.43;;;26.45;;
66546;SDS011;53400;50.364;14.874;2022-12-18T00:36:06;67.20;;;26.63;;
66546;SDS011;53400;50.364;14.874;2022-12-18T00:38:34;79.85;;;28.85;;
66546;SDS011;53400;50.364;14.874;2022-12-18T00:41:00;67.75;;;26.88;;
66546;SDS011;53400;50.364;14.874;2022-12-18T00:43:26;53.53;;;24.08;;
66546;SDS011;53400;50.364;14.874;2022-12-18T00:45:54;56.60;;;23.38;;
66546;SDS011;53400;50.364;14.874;2022-12-18T00:48:20;47.90;;;20.42;;
66546;SDS011;53400;50.364;14.874;2022-12-18T00:50:47;66.50;;;24.17;;
66546;SDS011;53400;50.364;14.874;2022-12-18T00:53:13;78.72;;;29.92;;
66546;SDS011;53400;50.364;14.874;2022-12-18T00:55:40;103.75;;;35.35;;
66546;SDS011;53400;50.364;14.874;2022-12-18T00:58:06;74.82;;;29.38;;
66546;SDS011;53400;50.364;14.874;2022-12-18T01:00:33;75.78;;;27.70;;
66546;SDS011;53400;50.364;14.874;2022-12-18T01:03:00;70.45;;;29.55;;
66546;SDS011;53400;50.364;14.874;2022-12-18T01:05:27;54.08;;;24.17;;
66546;SDS011;53400;50.364;14.874;2022-12-18T01:07:53;63.10;;;22.70;;
66546;SDS011;53400;50.364;14.874;2022-12-18T01:10:19;46.15;;;18.98;;
66546;SDS011;53400;50.364;14.874;2022-12-18T01:12:45;59.50;;;21.00;;
66546;SDS011;53400;50.364;14.874;2022-12-18T01:15:11;61.65;;;20.45;;
66546;SDS011;53400;50.364;14.874;2022-12-18T01:17:38;53.63;;;20.58;;
66546;SDS011;53400;50.364;14.874;2022-12-18T01:20:06;44.70;;;18.05;;
66546;SDS011;53400;50.364;14.874;2022-12-18T01:22:33;33.90;;;15.65;;
66546;SDS011;53400;50.364;14.874;2022-12-18T01:25:00;35.85;;;14.65;;
66546;SDS011;53400;50.364;14.874;2022-12-18T01:27:26;37.65;;;14.52;;
66546;SDS011;53400;50.364;14.874;2022-12-18T01:29:52;35.90;;;15.20;;
66546;SDS011;53400;50.364;14.874;2022-12-18T01:32:17;44.63;;;17.80;;
66546;SDS011;53400;50.364;14.874;2022-12-18T01:34:43;40.65;;;17.65;;
66546;SDS011;53400;50.364;14.874;2022-12-18T01:37:11;35.70;;;17.00;;
66546;SDS011;53400;50.364;14.874;2022-12-18T01:39:37;42.35;;;18.27;;
66546;SDS011;53400;50.364;14.874;2022-12-18T01:42:03;45.63;;;19.25;;
66546;SDS011;53400;50.364;14.874;2022-12-18T01:47:25;53.13;;;21.85;;
66546;SDS011;53400;50.364;14.874;2022-12-18T01:49:54;47.25;;;20.35;;
66546;SDS011;53400;50.364;14.874;2022-12-18T01:52:23;41.83;;;19.05;;
66546;SDS011;53400;50.364;14.874;2022-12-18T01:54:51;53.38;;;20.63;;
66546;SDS011;53400;50.364;14.874;2022-12-18T01:57:18;52.78;;;21.08;;
66546;SDS011;53400;50.364;14.874;2022-12-18T01:59:45;49.85;;;21.02;;
66546;SDS011;53400;50.364;14.874;2022-12-18T02:02:14;56.13;;;21.25;;
66546;SDS011;53400;50.364;14.874;2022-12-18T02:04:42;47.53;;;19.60;;
66546;SDS011;53400;50.364;14.874;2022-12-18T02:07:10;47.40;;;19.52;;
66546;SDS011;53400;50.364;14.874;2022-12-18T02:09:44;44.13;;;18.20;;
66546;SDS011;53400;50.364;14.874;2022-12-18T02:12:13;42.53;;;17.70;;
66546;SDS011;53400;50.364;14.874;2022-12-18T02:14:45;43.20;;;18.40;;
66546;SDS011;53400;50.364;14.874;2022-12-18T02:17:21;44.72;;;17.98;;
66546;SDS011;53400;50.364;14.874;2022-12-18T02:19:54;41.33;;;18.65;;
66546;SDS011;53400;50.364;14.874;2022-12-18T02:22:29;38.28;;;17.27;;
66546;SDS011;53400;50.364;14.874;2022-12-18T02:25:07;38.30;;;16.10;;
66546;SDS011;53400;50.364;14.874;2022-12-18T02:27:45;43.83;;;18.33;;
66546;SDS011;53400;50.364;14.874;2022-12-18T02:30:14;43.33;;;18.60;;
66546;SDS011;53400;50.364;14.874;2022-12-18T02:32:42;35.90;;;17.35;;
66546;SDS011;53400;50.364;14.874;2022-12-18T02:35:12;39.92;;;17.40;;
66546;SDS011;53400;50.364;14.874;2022-12-18T02:37:40;43.13;;;17.88;;
66546;SDS011;53400;50.364;14.874;2022-12-18T02:40:09;33.65;;;15.85;;
66546;SDS011;53400;50.364;14.874;2022-12-18T02:42:36;41.70;;;18.73;;
66546;SDS011;53400;50.364;14.874;2022-12-18T02:45:04;59.78;;;25.80;;
66546;SDS011;53400;50.364;14.874;2022-12-18T02:47:32;67.30;;;28.42;;
66546;SDS011;53400;50.364;14.874;2022-12-18T02:50:05;70.38;;;28.70;;
66546;SDS011;53400;50.364;14.874;2022-12-18T02:52:42;69.13;;;31.00;;
66546;SDS011;53400;50.364;14.874;2022-12-18T02:55:20;62.20;;;27.63;;
66546;SDS011;53400;50.364;14.874;2022-12-18T02:57:53;67.50;;;27.10;;
66546;SDS011;53400;50.364;14.874;2022-12-18T03:00:24;51.03;;;23.08;;
66546;SDS011;53400;50.364;14.874;2022-12-18T03:02:57;71.57;;;28.15;;
66546;SDS011;53400;50.364;14.874;2022-12-18T03:05:30;92.68;;;32.83;;
66546;SDS011;53400;50.364;14.874;2022-12-18T03:08:01;79.80;;;29.33;;
66546;SDS011;53400;50.364;14.874;2022-12-18T03:10:32;78.40;;;30.58;;
66546;SDS011;53400;50.364;14.874;2022-12-18T03:13:02;66.03;;;27.58;;
66546;SDS011;53400;50.364;14.874;2022-12-18T03:15:36;48.10;;;21.90;;
66546;SDS011;53400;50.364;14.874;2022-12-18T03:18:04;47.33;;;20.60;;
66546;SDS011;53400;50.364;14.874;2022-12-18T03:20:35;55.72;;;23.65;;
66546;SDS011;53400;50.364;14.874;2022-12-18T03:23:07;49.13;;;22.73;;
66546;SDS011;53400;50.364;14.874;2022-12-18T03:25:37;48.85;;;21.65;;
66546;SDS011;53400;50.364;14.874;2022-12-18T03:28:06;48.90;;;21.60;;
66546;SDS011;53400;50.364;14.874;2022-12-18T03:30:37;49.45;;;21.48;;
66546;SDS011;53400;50.364;14.874;2022-12-18T03:33:08;44.20;;;19.52;;
66546;SDS011;53400;50.364;14.874;2022-12-18T03:35:39;47.03;;;20.45;;
66546;SDS011;53400;50.364;14.874;2022-12-18T03:38:07;50.38;;;22.88;;
66546;SDS011;53400;50.364;14.874;2022-12-18T03:40:35;47.80;;;19.73;;
66546;SDS011;53400;50.364;14.874;2022-12-18T03:43:10;34.00;;;15.63;;
66546;SDS011;53400;50.364;14.874;2022-12-18T03:45:45;33.40;;;13.13;;
66546;SDS011;53400;50.364;14.874;2022-12-18T03:48:17;19.88;;;8.35;;
66546;SDS011;53400;50.364;14.874;2022-12-18T03:50:53;23.00;;;9.05;;
66546;SDS011;53400;50.364;14.874;2022-12-18T03:53:25;27.02;;;10.50;;
66546;SDS011;53400;50.364;14.874;2022-12-18T03:55:57;66.45;;;24.65;;
66546;SDS011;53400;50.364;14.874;2022-12-18T03:58:25;58.58;;;26.08;;
66546;SDS011;53400;50.364;14.874;2022-12-18T04:00:55;47.95;;;21.63;;
66546;SDS011;53400;50.364;14.874;2022-12-18T04:03:25;58.97;;;23.83;;
66546;SDS011;53400;50.364;14.874;2022-12-18T04:05:54;63.33;;;25.00;;
66546;SDS011;53400;50.364;14.874;2022-12-18T04:08:21;67.82;;;27.77;;
66546;SDS011;53400;50.364;14.874;2022-12-18T04:10:48;58.67;;;24.85;;
66546;SDS011;53400;50.364;14.874;2022-12-18T04:13:21;66.32;;;28.73;;
66546;SDS011;53400;50.364;14.874;2022-12-18T04:15:48;53.92;;;24.27;;
66546;SDS011;53400;50.364;14.874;2022-12-18T04:18:15;53.33;;;23.42;;
66546;SDS011;53400;50.364;14.874;2022-12-18T04:20:41;51.47;;;20.98;;
66546;SDS011;53400;50.364;14.874;2022-12-18T04:23:07;46.75;;;20.55;;
66546;SDS011;53400;50.364;14.874;2022-12-18T04:25:33;53.42;;;20.67;;
66546;SDS011;53400;50.364;14.874;2022-12-18T04:27:58;53.38;;;21.75;;
66546;SDS011;53400;50.364;14.874;2022-12-18T04:30:24;44.47;;;20.35;;
66546;SDS011;53400;50.364;14.874;2022-12-18T04:32:50;50.80;;;21.70;;
66546;SDS011;53400;50.364;14.874;2022-12-18T04:35:18;45.47;;;20.05;;
66546;SDS011;53400;50.364;14.874;2022-12-18T04:37:43;51.65;;;20.10;;
66546;SDS011;53400;50.364;14.874;2022-12-18T04:40:10;46.78;;;21.85;;
66546;SDS011;53400;50.364;14.874;2022-12-18T04:42:37;48.20;;;21.20;;
66546;SDS011;53400;50.364;14.874;2022-12-18T04:45:04;48.97;;;21.70;;
66546;SDS011;53400;50.364;14.874;2022-12-18T04:47:31;52.60;;;20.98;;
66546;SDS011;53400;50.364;14.874;2022-12-18T04:49:57;46.78;;;19.30;;
66546;SDS011;53400;50.364;14.874;2022-12-18T04:52:24;44.47;;;20.30;;
66546;SDS011;53400;50.364;14.874;2022-12-18T04:54:51;51.38;;;21.02;;
66546;SDS011;53400;50.364;14.874;2022-12-18T04:57:16;49.28;;;21.02;;
66546;SDS011;53400;50.364;14.874;2022-12-18T04:59:46;49.05;;;20.77;;
66546;SDS011;53400;50.364;14.874;2022-12-18T05:02:11;50.90;;;21.35;;
66546;SDS011;53400;50.364;14.874;2022-12-18T05:04:37;53.92;;;21.23;;
66546;SDS011;53400;50.364;14.874;2022-12-18T05:07:04;50.28;;;21.52;;
66546;SDS011;53400;50.364;14.874;2022-12-18T05:09:31;55.83;;;21.70;;
66546;SDS011;53400;50.364;14.874;2022-12-18T05:11:57;51.33;;;21.58;;
66546;SDS011;53400;50.364;14.874;2022-12-18T05:14:23;50.78;;;21.67;;
66546;SDS011;53400;50.364;14.874;2022-12-18T05:16:49;51.63;;;21.83;;
66546;SDS011;53400;50.364;14.874;2022-12-18T05:19:15;50.08;;;21.73;;
66546;SDS011;53400;50.364;14.874;2022-12-18T05:21:41;54.42;;;23.30;;
66546;SDS011;53400;50.364;14.874;2022-12-18T05:24:07;53.08;;;21.63;;
66546;SDS011;53400;50.364;14.874;2022-12-18T05:26:34;54.00;;;21.30;;
66546;SDS011;53400;50.364;14.874;2022-12-18T05:29:00;49.80;;;22.58;;
66546;SDS011;53400;50.364;14.874;2022-12-18T05:31:26;40.22;;;18.83;;
66546;SDS011;53400;50.364;14.874;2022-12-18T05:33:52;49.03;;;19.83;;
66546;SDS011;53400;50.364;14.874;2022-12-18T05:36:19;51.03;;;20.75;;
66546;SDS011;53400;50.364;14.874;2022-12-18T05:38:45;54.00;;;20.95;;
66546;SDS011;53400;50.364;14.874;2022-12-18T05:41:11;47.80;;;22.73;;
66546;SDS011;53400;50.364;14.874;2022-12-18T05:43:38;50.42;;;22.10;;
66546;SDS011;53400;50.364;14.874;2022-12-18T05:46:05;55.38;;;24.83;;
66546;SDS011;53400;50.364;14.874;2022-12-18T05:48:31;54.45;;;24.05;;
66546;SDS011;53400;50.364;14.874;2022-12-18T05:51:02;59.00;;;24.50;;
66546;SDS011;53400;50.364;14.874;2022-12-18T05:53:29;50.72;;;21.85;;
66546;SDS011;53400;50.364;14.874;2022-12-18T05:55:59;54.90;;;25.08;;
66546;SDS011;53400;50.364;14.874;2022-12-18T05:58:25;51.10;;;25.42;;
66546;SDS011;53400;50.364;14.874;2022-12-18T06:00:52;56.60;;;25.77;;
66546;SDS011;53400;50.364;14.874;2022-12-18T06:03:18;48.80;;;22.45;;
66546;SDS011;53400;50.364;14.874;2022-12-18T06:05:45;60.67;;;24.40;;
66546;SDS011;53400;50.364;14.874;2022-12-18T06:08:11;58.63;;;25.10;;
66546;SDS011;53400;50.364;14.874;2022-12-18T06:10:37;57.97;;;27.13;;
66546;SDS011;53400;50.364;14.874;2022-12-18T06:13:04;55.35;;;25.80;;
66546;SDS011;53400;50.364;14.874;2022-12-18T06:15:31;58.03;;;26.20;;
66546;SDS011;53400;50.364;14.874;2022-12-18T06:17:59;57.20;;;26.15;;
66546;SDS011;53400;50.364;14.874;2022-12-18T06:20:25;50.13;;;23.33;;
66546;SDS011;53400;50.364;14.874;2022-12-18T06:22:51;59.83;;;26.83;;
66546;SDS011;53400;50.364;14.874;2022-12-18T06:25:17;58.28;;;24.73;;
66546;SDS011;53400;50.364;14.874;2022-12-18T06:27:43;49.92;;;23.10;;
66546;SDS011;53400;50.364;14.874;2022-12-18T06:30:09;52.22;;;21.83;;
66546;SDS011;53400;50.364;14.874;2022-12-18T06:32:36;53.50;;;23.15;;
66546;SDS011;53400;50.364;14.874;2022-12-18T06:35:04;52.38;;;22.40;;
66546;SDS011;53400;50.364;14.874;2022-12-18T06:37:31;47.15;;;20.17;;
66546;SDS011;53400;50.364;14.874;2022-12-18T06:39:57;55.60;;;22.55;;
66546;SDS011;53400;50.364;14.874;2022-12-18T06:42:23;55.85;;;22.67;;
66546;SDS011;53400;50.364;14.874;2022-12-18T06:44:50;53.88;;;25.13;;
66546;SDS011;53400;50.364;14.874;2022-12-18T06:47:17;51.92;;;23.83;;
66546;SDS011;53400;50.364;14.874;2022-12-18T06:49:44;60.78;;;25.80;;
66546;SDS011;53400;50.364;14.874;2022-12-18T06:52:12;59.70;;;25.35;;
66546;SDS011;53400;50.364;14.874;2022-12-18T06:54:40;57.67;;;24.33;;
66546;SDS011;53400;50.364;14.874;2022-12-18T06:57:08;61.13;;;25.30;;
66546;SDS011;53400;50.364;14.874;2022-12-18T06:59:34;59.75;;;23.92;;
66546;SDS011;53400;50.364;14.874;2022-12-18T07:02:01;49.92;;;24.50;;
66546;SDS011;53400;50.364;14.874;2022-12-18T07:04:28;44.92;;;17.90;;
66546;SDS011;53400;50.364;14.874;2022-12-18T07:06:55;57.08;;;21.95;;
66546;SDS011;53400;50.364;14.874;2022-12-18T07:09:24;55.65;;;21.02;;
66546;SDS011;53400;50.364;14.874;2022-12-18T07:11:51;58.13;;;24.20;;
66546;SDS011;53400;50.364;14.874;2022-12-18T07:14:18;55.92;;;24.42;;
66546;SDS011;53400;50.364;14.874;2022-12-18T07:16:45;56.70;;;25.58;;
66546;SDS011;53400;50.364;14.874;2022-12-18T07:19:11;51.72;;;25.40;;
66546;SDS011;53400;50.364;14.874;2022-12-18T07:21:37;61.53;;;25.05;;
66546;SDS011;53400;50.364;14.874;2022-12-18T07:24:04;50.28;;;22.08;;
66546;SDS011;53400;50.364;14.874;2022-12-18T07:26:34;54.08;;;23.83;;
66546;SDS011;53400;50.364;14.874;2022-12-18T07:29:00;53.75;;;23.80;;
66546;SDS011;53400;50.364;14.874;2022-12-18T07:31:27;57.20;;;23.48;;
66546;SDS011;53400;50.364;14.874;2022-12-18T07:33:54;57.92;;;24.13;;
66546;SDS011;53400;50.364;14.874;2022-12-18T07:36:20;55.13;;;22.88;;
66546;SDS011;53400;50.364;14.874;2022-12-18T07:38:49;47.00;;;20.92;;
66546;SDS011;53400;50.364;14.874;2022-12-18T07:41:17;48.97;;;21.23;;
66546;SDS011;53400;50.364;14.874;2022-12-18T07:43:46;49.95;;;19.85;;
66546;SDS011;53400;50.364;14.874;2022-12-18T07:46:14;42.17;;;18.02;;
66546;SDS011;53400;50.364;14.874;2022-12-18T07:48:41;48.40;;;19.48;;
66546;SDS011;53400;50.364;14.874;2022-12-18T07:51:09;39.65;;;18.50;;
66546;SDS011;53400;50.364;14.874;2022-12-18T07:53:38;37.40;;;15.18;;
66546;SDS011;53400;50.364;14.874;2022-12-18T07:56:06;33.80;;;14.30;;
66546;SDS011;53400;50.364;14.874;2022-12-18T07:58:34;29.77;;;13.00;;
66546;SDS011;53400;50.364;14.874;2022-12-18T08:01:04;29.33;;;11.38;;
66546;SDS011;53400;50.364;14.874;2022-12-18T08:03:31;32.83;;;13.20;;
66546;SDS011;53400;50.364;14.874;2022-12-18T08:05:59;27.52;;;12.23;;
66546;SDS011;53400;50.364;14.874;2022-12-18T08:08:27;33.72;;;14.20;;
66546;SDS011;53400;50.364;14.874;2022-12-18T08:10:54;35.97;;;14.40;;
66546;SDS011;53400;50.364;14.874;2022-12-18T08:13:24;36.15;;;14.40;;
66546;SDS011;53400;50.364;14.874;2022-12-18T08:15:57;33.80;;;14.20;;
66546;SDS011;53400;50.364;14.874;2022-12-18T08:18:26;27.65;;;11.05;;
66546;SDS011;53400;50.364;14.874;2022-12-18T08:20:54;30.13;;;12.90;;
66546;SDS011;53400;50.364;14.874;2022-12-18T08:23:21;39.05;;;16.33;;
66546;SDS011;53400;50.364;14.874;2022-12-18T08:25:48;39.53;;;18.63;;
66546;SDS011;53400;50.364;14.874;2022-12-18T08:48:20;84.38;;;31.80;;
66546;SDS011;53400;50.364;14.874;2022-12-18T08:50:53;79.10;;;31.30;;
66546;SDS011;53400;50.364;14.874;2022-12-18T08:53:21;66.60;;;26.55;;
66546;SDS011;53400;50.364;14.874;2022-12-18T08:55:50;61.03;;;22.25;;
66546;SDS011;53400;50.364;14.874;2022-12-18T08:58:17;60.78;;;22.20;;
66546;SDS011;53400;50.364;14.874;2022-12-18T09:00:44;57.88;;;22.27;;
66546;SDS011;53400;50.364;14.874;2022-12-18T09:03:13;47.60;;;21.23;;
66546;SDS011;53400;50.364;14.874;2022-12-18T09:05:43;60.25;;;24.48;;
66546;SDS011;53400;50.364;14.874;2022-12-18T09:08:11;54.78;;;22.05;;
66546;SDS011;53400;50.364;14.874;2022-12-18T09:10:42;61.58;;;23.50;;
66546;SDS011;53400;50.364;14.874;2022-12-18T09:13:09;50.90;;;20.35;;
66546;SDS011;53400;50.364;14.874;2022-12-18T09:15:40;51.63;;;22.73;;
66546;SDS011;53400;50.364;14.874;2022-12-18T09:18:07;60.63;;;23.23;;
66546;SDS011;53400;50.364;14.874;2022-12-18T09:20:35;49.50;;;20.95;;
66546;SDS011;53400;50.364;14.874;2022-12-18T09:23:06;58.00;;;25.90;;
66546;SDS011;53400;50.364;14.874;2022-12-18T09:25:36;58.35;;;23.42;;
66546;SDS011;53400;50.364;14.874;2022-12-18T09:28:05;41.80;;;19.48;;
66546;SDS011;53400;50.364;14.874;2022-12-18T09:30:36;36.08;;;13.07;;
66546;SDS011;53400;50.364;14.874;2022-12-18T09:33:03;33.90;;;13.98;;
66546;SDS011;53400;50.364;14.874;2022-12-18T09:35:31;43.22;;;17.50;;
66546;SDS011;53400;50.364;14.874;2022-12-18T09:38:00;45.25;;;18.33;;
66546;SDS011;53400;50.364;14.874;2022-12-18T09:40:32;54.97;;;21.92;;
66546;SDS011;53400;50.364;14.874;2022-12-18T09:43:03;50.72;;;20.83;;
66546;SDS011;53400;50.364;14.874;2022-12-18T09:45:31;50.60;;;23.65;;
66546;SDS011;53400;50.364;14.874;2022-12-18T09:48:05;68.35;;;25.52;;
66546;SDS011;53400;50.364;14.874;2022-12-18T09:50:37;49.00;;;20.02;;
66546;SDS011;53400;50.364;14.874;2022-12-18T09:53:07;58.20;;;23.30;;
66546;SDS011;53400;50.364;14.874;2022-12-18T09:55:44;41.88;;;18.67;;
66546;SDS011;53400;50.364;14.874;2022-12-18T09:58:13;42.03;;;18.15;;
66546;SDS011;53400;50.364;14.874;2022-12-18T10:00:43;52.30;;;22.35;;
66546;SDS011;53400;50.364;14.874;2022-12-18T10:03:11;37.90;;;18.30;;
66546;SDS011;53400;50.364;14.874;2022-12-18T10:05:40;51.70;;;22.42;;
66546;SDS011;53400;50.364;14.874;2022-12-18T10:08:16;31.50;;;13.52;;
66546;SDS011;53400;50.364;14.874;2022-12-18T10:10:51;53.30;;;22.65;;
66546;SDS011;53400;50.364;14.874;2022-12-18T10:13:21;37.97;;;18.45;;
66546;SDS011;53400;50.364;14.874;2022-12-18T10:16:09;34.00;;;14.85;;
66546;SDS011;53400;50.364;14.874;2022-12-18T10:18:57;33.40;;;12.85;;
66546;SDS011;53400;50.364;14.874;2022-12-18T10:21:42;26.85;;;11.10;;
66546;SDS011;53400;50.364;14.874;2022-12-18T10:24:21;21.73;;;8.90;;
66546;SDS011;53400;50.364;14.874;2022-12-18T10:27:04;37.28;;;14.63;;
66546;SDS011;53400;50.364;14.874;2022-12-18T10:29:38;35.97;;;12.80;;
66546;SDS011;53400;50.364;14.874;2022-12-18T10:32:06;34.78;;;13.93;;
66546;SDS011;53400;50.364;14.874;2022-12-18T10:34:51;37.05;;;14.68;;
66546;SDS011;53400;50.364;14.874;2022-12-18T10:37:21;37.60;;;16.17;;
66546;SDS011;53400;50.364;14.874;2022-12-18T10:40:04;38.47;;;15.40;;
66546;SDS011;53400;50.364;14.874;2022-12-18T10:42:41;37.03;;;14.00;;
66546;SDS011;53400;50.364;14.874;2022-12-18T10:45:11;33.45;;;15.55;;
66546;SDS011;53400;50.364;14.874;2022-12-18T10:47:43;22.70;;;10.85;;
66546;SDS011;53400;50.364;14.874;2022-12-18T10:50:25;38.47;;;16.20;;
66546;SDS011;53400;50.364;14.874;2022-12-18T10:52:55;45.05;;;16.65;;
66546;SDS011;53400;50.364;14.874;2022-12-18T10:55:24;50.45;;;16.88;;
66546;SDS011;53400;50.364;14.874;2022-12-18T10:58:03;45.70;;;17.23;;
66546;SDS011;53400;50.364;14.874;2022-12-18T11:00:42;40.70;;;15.68;;
66546;SDS011;53400;50.364;14.874;2022-12-18T11:03:28;44.60;;;18.30;;
66546;SDS011;53400;50.364;14.874;2022-12-18T11:06:04;44.65;;;17.50;;
66546;SDS011;53400;50.364;14.874;2022-12-18T11:08:32;41.72;;;16.33;;
66546;SDS011;53400;50.364;14.874;2022-12-18T11:11:00;44.88;;;18.00;;
66546;SDS011;53400;50.364;14.874;2022-12-18T11:13:28;41.42;;;17.75;;
66546;SDS011;53400;50.364;14.874;2022-12-18T11:15:56;40.83;;;16.70;;
66546;SDS011;53400;50.364;14.874;2022-12-18T11:18:25;42.58;;;16.92;;
66546;SDS011;53400;50.364;14.874;2022-12-18T11:20:53;42.88;;;19.52;;
66546;SDS011;53400;50.364;14.874;2022-12-18T11:23:21;41.78;;;17.65;;
66546;SDS011;53400;50.364;14.874;2022-12-18T11:25:52;38.42;;;15.82;;
66546;SDS011;53400;50.364;14.874;2022-12-18T11:31:19;45.63;;;17.60;;
66546;SDS011;53400;50.364;14.874;2022-12-18T11:33:50;36.83;;;15.18;;
66546;SDS011;53400;50.364;14.874;2022-12-18T11:36:28;33.10;;;12.48;;
66546;SDS011;53400;50.364;14.874;2022-12-18T11:38:59;41.60;;;13.47;;
66546;SDS011;53400;50.364;14.874;2022-12-18T11:41:32;40.83;;;15.52;;
66546;SDS011;53400;50.364;14.874;2022-12-18T11:44:24;19.85;;;8.27;;
66546;SDS011;53400;50.364;14.874;2022-12-18T11:46:55;28.92;;;11.77;;
66546;SDS011;53400;50.364;14.874;2022-12-18T11:49:26;35.28;;;15.82;;
66546;SDS011;53400;50.364;14.874;2022-12-18T11:51:58;31.52;;;13.63;;
66546;SDS011;53400;50.364;14.874;2022-12-18T11:54:30;43.80;;;16.63;;
66546;SDS011;53400;50.364;14.874;2022-12-18T11:56:59;36.05;;;13.43;;
66546;SDS011;53400;50.364;14.874;2022-12-18T11:59:35;51.70;;;19.05;;
66546;SDS011;53400;50.364;14.874;2022-12-18T12:02:15;50.35;;;19.40;;
66546;SDS011;53400;50.364;14.874;2022-12-18T12:04:56;42.78;;;15.73;;
66546;SDS011;53400;50.364;14.874;2022-12-18T12:07:36;24.75;;;13.32;;
66546;SDS011;53400;50.364;14.874;2022-12-18T12:10:13;44.03;;;14.70;;
66546;SDS011;53400;50.364;14.874;2022-12-18T12:12:54;34.97;;;14.15;;
66546;SDS011;53400;50.364;14.874;2022-12-18T12:15:39;45.35;;;16.35;;
66546;SDS011;53400;50.364;14.874;2022-12-18T12:18:15;29.27;;;11.60;;
66546;SDS011;53400;50.364;14.874;2022-12-18T12:20:50;27.17;;;10.60;;
66546;SDS011;53400;50.364;14.874;2022-12-18T12:23:29;21.83;;;8.18;;
66546;SDS011;53400;50.364;14.874;2022-12-18T12:26:04;23.77;;;9.32;;
66546;SDS011;53400;50.364;14.874;2022-12-18T12:28:37;30.67;;;11.05;;
66546;SDS011;53400;50.364;14.874;2022-12-18T12:33:51;36.95;;;14.82;;
66546;SDS011;53400;50.364;14.874;2022-12-18T12:36:26;25.73;;;12.38;;
66546;SDS011;53400;50.364;14.874;2022-12-18T12:38:59;28.73;;;10.77;;
66546;SDS011;53400;50.364;14.874;2022-12-18T12:41:30;37.58;;;12.95;;
66546;SDS011;53400;50.364;14.874;2022-12-18T12:44:19;32.53;;;12.85;;
66546;SDS011;53400;50.364;14.874;2022-12-18T12:46:51;37.95;;;13.15;;
66546;SDS011;53400;50.364;14.874;2022-12-18T12:49:22;35.10;;;11.73;;
66546;SDS011;53400;50.364;14.874;2022-12-18T12:51:55;27.27;;;10.75;;
66546;SDS011;53400;50.364;14.874;2022-12-18T12:54:26;35.97;;;12.30;;
66546;SDS011;53400;50.364;14.874;2022-12-18T12:56:54;36.08;;;12.18;;
66546;SDS011;53400;50.364;14.874;2022-12-18T12:59:27;41.83;;;15.27;;
66546;SDS011;53400;50.364;14.874;2022-12-18T13:02:04;33.15;;;12.57;;
66546;SDS011;53400;50.364;14.874;2022-12-18T13:04:41;40.28;;;15.52;;
66546;SDS011;53400;50.364;14.874;2022-12-18T13:07:15;41.58;;;14.48;;
66546;SDS011;53400;50.364;14.874;2022-12-18T13:12:50;30.10;;;10.45;;
66546;SDS011;53400;50.364;14.874;2022-12-18T13:15:24;37.70;;;14.30;;
66546;SDS011;53400;50.364;14.874;2022-12-18T13:18:06;42.17;;;14.93;;
66546;SDS011;53400;50.364;14.874;2022-12-18T13:20:39;37.00;;;13.85;;
66546;SDS011;53400;50.364;14.874;2022-12-18T13:23:23;39.47;;;12.98;;
66546;SDS011;53400;50.364;14.874;2022-12-18T13:25:53;42.13;;;16.52;;
66546;SDS011;53400;50.364;14.874;2022-12-18T13:28:21;41.67;;;15.15;;
66546;SDS011;53400;50.364;14.874;2022-12-18T13:30:51;44.67;;;16.38;;
66546;SDS011;53400;50.364;14.874;2022-12-18T13:33:34;41.97;;;16.27;;
66546;SDS011;53400;50.364;14.874;2022-12-18T13:36:09;45.17;;;16.20;;
66546;SDS011;53400;50.364;14.874;2022-12-18T13:38:39;42.80;;;14.35;;
66546;SDS011;53400;50.364;14.874;2022-12-18T13:41:20;29.40;;;12.10;;
66546;SDS011;53400;50.364;14.874;2022-12-18T13:43:48;39.95;;;15.05;;
66546;SDS011;53400;50.364;14.874;2022-12-18T13:46:23;19.92;;;8.55;;
66546;SDS011;53400;50.364;14.874;2022-12-18T13:48:58;20.55;;;10.40;;
66546;SDS011;53400;50.364;14.874;2022-12-18T13:51:27;40.30;;;17.30;;
66546;SDS011;53400;50.364;14.874;2022-12-18T13:53:57;38.45;;;14.02;;
66546;SDS011;53400;50.364;14.874;2022-12-18T13:56:26;31.45;;;12.25;;
66546;SDS011;53400;50.364;14.874;2022-12-18T13:59:11;43.78;;;17.45;;
66546;SDS011;53400;50.364;14.874;2022-12-18T14:01:44;41.45;;;16.08;;
66546;SDS011;53400;50.364;14.874;2022-12-18T14:04:19;40.38;;;16.77;;
66546;SDS011;53400;50.364;14.874;2022-12-18T14:06:53;36.20;;;13.38;;
66546;SDS011;53400;50.364;14.874;2022-12-18T14:09:24;34.80;;;11.88;;
66546;SDS011;53400;50.364;14.874;2022-12-18T14:11:53;51.35;;;15.30;;
66546;SDS011;53400;50.364;14.874;2022-12-18T14:14:41;28.10;;;10.68;;
66546;SDS011;53400;50.364;14.874;2022-12-18T14:17:09;40.17;;;15.18;;
66546;SDS011;53400;50.364;14.874;2022-12-18T14:19:38;40.63;;;13.65;;
66546;SDS011;53400;50.364;14.874;2022-12-18T14:22:10;28.83;;;11.50;;
66546;SDS011;53400;50.364;14.874;2022-12-18T14:24:40;42.38;;;12.50;;
66546;SDS011;53400;50.364;14.874;2022-12-18T14:27:12;21.42;;;7.80;;
66546;SDS011;53400;50.364;14.874;2022-12-18T14:29:45;41.90;;;15.20;;
66546;SDS011;53400;50.364;14.874;2022-12-18T14:32:11;37.10;;;15.32;;
66546;SDS011;53400;50.364;14.874;2022-12-18T14:34:43;22.65;;;9.27;;
66546;SDS011;53400;50.364;14.874;2022-12-18T14:37:10;31.40;;;13.32;;
66546;SDS011;53400;50.364;14.874;2022-12-18T14:39:37;34.55;;;16.50;;
66546;SDS011;53400;50.364;14.874;2022-12-18T14:42:03;36.80;;;14.18;;
66546;SDS011;53400;50.364;14.874;2022-12-18T14:44:30;33.38;;;13.43;;
66546;SDS011;53400;50.364;14.874;2022-12-18T14:46:56;24.75;;;9.13;;
66546;SDS011;53400;50.364;14.874;2022-12-18T14:49:23;55.72;;;29.38;;
66546;SDS011;53400;50.364;14.874;2022-12-18T14:51:53;35.13;;;14.18;;
66546;SDS011;53400;50.364;14.874;2022-12-18T14:54:22;41.20;;;16.98;;
66546;SDS011;53400;50.364;14.874;2022-12-18T14:56:50;33.22;;;13.48;;